Time;durP1;ratioP1;P1;durP2;ratioP2;P2;SDS_P1;SDS_P2;PMS_P1;PMS_P2;Temp;Humidity;BMP_temperature;BMP_pressure;BME280_temperature;BME280_humidity;BME280_pressure;Samples;Min_cycle;Max_cycle;Signal;HPM_P1;HPM_P2
2022/03/21 00:00:27;;;;;;;3.28;1.38;;;26.90;29.10;;;;;;4952734;28;20454;-57
2022/03/21 00:02:56;;;;;;;5.55;1.10;;;26.90;28.80;;;;;;4933270;29;20499;-59
2022/03/21 00:05:23;;;;;;;16.83;2.03;;;26.90;27.70;;;;;;4933110;29;20556;-60
2022/03/21 00:07:50;;;;;;;4.55;1.20;;;26.80;27.50;;;;;;4947090;28;20529;-61
2022/03/21 00:10:16;;;;;;;11.02;1.20;;;26.80;27.40;;;;;;4950097;28;20084;-61
2022/03/21 00:12:43;;;;;;;7.30;1.52;;;26.80;27.20;;;;;;4948218;28;20091;-57
2022/03/21 00:15:10;;;;;;;13.23;2.05;;;26.80;27.80;;;;;;4949620;28;20078;-56
2022/03/21 00:17:40;;;;;;;12.43;1.17;;;26.80;28.90;;;;;;4949231;28;20159;-57
2022/03/21 00:20:09;;;;;;;6.30;1.30;;;26.80;28.80;;;;;;4950115;28;20087;-58
2022/03/21 00:22:37;;;;;;;6.95;1.25;;;26.80;28.50;;;;;;4948969;28;20215;-59
2022/03/21 00:25:05;;;;;;;12.32;1.73;;;26.80;28.90;;;;;;4949118;28;20119;-56
2022/03/21 00:27:33;;;;;;;13.10;1.48;;;26.60;29.90;;;;;;4948135;28;20076;-56
2022/03/21 00:29:59;;;;;;;8.63;1.23;;;26.40;30.00;;;;;;4948967;28;20135;-60
2022/03/21 00:32:26;;;;;;;7.70;1.10;;;26.30;29.50;;;;;;4950437;28;20092;-55
2022/03/21 00:34:52;;;;;;;10.95;1.70;;;26.40;29.70;;;;;;4933133;28;20072;-57
2022/03/21 00:37:18;;;;;;;6.40;1.35;;;26.40;29.80;;;;;;4948138;29;20163;-57
2022/03/21 00:39:45;;;;;;;8.52;1.38;;;26.40;29.70;;;;;;4948592;28;20092;-61
2022/03/21 00:42:11;;;;;;;11.10;2.15;;;26.30;29.90;;;;;;4952195;28;20080;-58
2022/03/21 00:44:38;;;;;;;9.50;1.70;;;26.20;30.60;;;;;;4950092;29;20072;-57
2022/03/21 00:47:05;;;;;;;18.70;2.22;;;26.10;31.00;;;;;;4949155;29;20071;-59
2022/03/21 00:49:31;;;;;;;55.35;4.05;;;25.90;32.20;;;;;;4944361;29;20068;-58
2022/03/21 00:51:58;;;;;;;17.77;2.65;;;25.80;32.50;;;;;;4952774;28;20108;-58
2022/03/21 00:54:24;;;;;;;37.80;3.78;;;25.60;32.80;;;;;;4948332;29;20110;-56
2022/03/21 00:56:51;;;;;;;75.40;6.00;;;25.50;33.30;;;;;;4947677;29;20088;-62
2022/03/21 00:59:17;;;;;;;62.50;4.95;;;25.50;33.70;;;;;;4949851;28;20080;-55
2022/03/21 01:01:44;;;;;;;33.72;4.22;;;25.30;33.70;;;;;;4948733;28;20126;-54
2022/03/21 01:04:10;;;;;;;20.08;2.15;;;25.20;34.00;;;;;;4935307;28;20080;-55
2022/03/21 01:06:38;;;;;;;29.63;3.67;;;25.10;34.10;;;;;;4951732;29;20119;-56
2022/03/21 01:09:05;;;;;;;27.92;3.20;;;24.90;34.70;;;;;;4952393;28;20079;-56
2022/03/21 01:11:31;;;;;;;54.80;4.47;;;24.70;35.50;;;;;;4953220;29;20171;-60
2022/03/21 01:13:58;;;;;;;41.53;3.55;;;24.50;36.40;;;;;;4952516;29;20084;-60
2022/03/21 01:16:24;;;;;;;31.50;3.40;;;24.40;36.80;;;;;;4953342;28;20595;-65
2022/03/21 01:18:50;;;;;;;41.40;3.83;;;24.30;37.00;;;;;;4952891;29;20072;-64
2022/03/21 01:21:17;;;;;;;36.67;3.65;;;24.10;37.30;;;;;;4952394;29;20134;-59
2022/03/21 01:23:43;;;;;;;45.90;4.63;;;24.00;37.70;;;;;;4951768;29;20097;-60
2022/03/21 01:26:10;;;;;;;32.17;3.85;;;23.90;37.50;;;;;;4951646;29;20130;-61
2022/03/21 01:28:36;;;;;;;40.42;3.38;;;23.80;37.40;;;;;;4950822;29;20699;-63
2022/03/21 01:31:02;;;;;;;35.38;3.17;;;23.70;37.40;;;;;;4951956;28;20095;-61
2022/03/21 01:33:30;;;;;;;23.83;3.63;;;23.50;37.60;;;;;;4956684;28;20146;-60
2022/03/21 01:35:57;;;;;;;32.35;3.90;;;23.50;38.00;;;;;;4967255;28;20079;-60
2022/03/21 01:38:24;;;;;;;28.73;3.78;;;23.30;38.30;;;;;;4952231;29;20115;-62
2022/03/21 01:40:50;;;;;;;37.38;4.05;;;23.30;38.80;;;;;;4965134;28;20071;-61
2022/03/21 01:43:17;;;;;;;39.33;3.50;;;23.20;39.10;;;;;;4952080;29;20593;-62
2022/03/21 01:45:43;;;;;;;40.88;3.92;;;23.20;39.20;;;;;;4952300;29;20134;-60
2022/03/21 01:48:10;;;;;;;33.08;3.67;;;23.10;39.20;;;;;;4952431;28;20096;-62
2022/03/21 01:50:37;;;;;;;21.15;3.33;;;23.10;39.50;;;;;;4951880;28;20067;-62
2022/03/21 01:56:08;;;;;;;26.00;3.35;;;22.90;39.40;;;;;;4950930;28;20096;-61
2022/03/21 01:58:34;;;;;;;22.05;2.97;;;22.80;39.50;;;;;;4951136;28;20160;-61
2022/03/21 02:01:01;;;;;;;15.63;2.70;;;22.80;39.70;;;;;;4948561;28;20428;-63
2022/03/21 02:03:27;;;;;;;21.33;3.53;;;22.60;39.60;;;;;;4950971;28;20622;-61
2022/03/21 02:05:54;;;;;;;17.73;3.67;;;22.60;39.90;;;;;;4935660;29;20115;-62
2022/03/21 02:08:21;;;;;;;12.75;2.67;;;22.60;40.10;;;;;;4947467;28;20874;-62
2022/03/21 02:10:48;;;;;;;18.70;2.72;;;22.50;40.10;;;;;;4946947;28;20123;-62
2022/03/21 02:13:17;;;;;;;36.22;3.45;;;22.40;40.30;;;;;;4934716;28;20231;-58
2022/03/21 02:15:43;;;;;;;16.55;2.55;;;22.30;40.10;;;;;;4934546;29;20086;-65
2022/03/21 02:18:11;;;;;;;17.90;2.72;;;22.40;39.60;;;;;;4940502;29;20099;-65
2022/03/21 02:20:41;;;;;;;7.90;1.80;;;22.30;39.30;;;;;;4949626;28;20135;-63
2022/03/21 02:23:29;;;;;;;20.85;2.65;;;22.30;39.10;;;;;;4950333;28;20143;-62
2022/03/21 02:25:57;;;;;;;21.58;2.42;;;22.30;39.00;;;;;;4934396;29;20084;-63
2022/03/21 02:28:25;;;;;;;12.90;2.33;;;22.30;38.90;;;;;;4951711;28;20076;-64
2022/03/21 02:30:53;;;;;;;16.27;2.58;;;22.30;38.80;;;;;;4951113;28;20106;-63
2022/03/21 02:33:20;;;;;;;14.25;2.60;;;22.20;38.90;;;;;;4950782;28;20068;-62
2022/03/21 02:35:51;;;;;;;15.63;2.53;;;22.20;38.90;;;;;;4951396;28;20131;-61
2022/03/21 02:38:18;;;;;;;15.98;2.78;;;22.10;39.00;;;;;;4950232;29;20192;-61
2022/03/21 02:40:45;;;;;;;9.10;2.53;;;22.10;38.90;;;;;;4966780;28;20127;-62
2022/03/21 02:43:12;;;;;;;10.20;2.50;;;22.00;38.70;;;;;;4964329;28;20075;-62
2022/03/21 02:45:40;;;;;;;15.07;2.33;;;22.00;38.60;;;;;;4967126;28;20099;-64
2022/03/21 02:48:07;;;;;;;11.02;2.35;;;22.00;38.50;;;;;;4951860;28;20096;-63
2022/03/21 02:50:49;;;;;;;21.38;2.78;;;22.00;38.30;;;;;;4942427;28;20075;-62
2022/03/21 02:53:18;;;;;;;12.77;2.53;;;22.00;38.10;;;;;;4950516;28;20469;-62
2022/03/21 02:55:45;;;;;;;8.35;2.05;;;22.00;38.10;;;;;;4951517;28;20187;-63
2022/03/21 02:58:11;;;;;;;9.63;1.95;;;22.00;38.00;;;;;;4952373;29;20553;-62
2022/03/21 03:00:38;;;;;;;13.45;2.47;;;22.00;38.00;;;;;;4952765;29;20114;-62
2022/03/21 03:03:04;;;;;;;9.05;2.47;;;21.90;38.10;;;;;;4950880;28;20627;-63
2022/03/21 03:05:30;;;;;;;16.85;2.50;;;21.90;38.20;;;;;;4934930;28;20154;-64
2022/03/21 03:07:57;;;;;;;10.73;2.40;;;21.90;38.10;;;;;;4950451;28;20098;-63
2022/03/21 03:10:23;;;;;;;16.30;2.65;;;21.90;38.10;;;;;;4950091;28;20103;-64
2022/03/21 03:12:49;;;;;;;14.82;2.75;;;21.80;38.10;;;;;;4950859;29;20150;-61
2022/03/21 03:15:16;;;;;;;18.27;2.25;;;21.80;38.10;;;;;;4935631;29;20080;-62
2022/03/21 03:17:42;;;;;;;14.73;2.20;;;21.80;37.90;;;;;;4950467;28;20131;-60
2022/03/21 03:20:09;;;;;;;11.32;2.08;;;21.80;37.90;;;;;;4950729;29;20072;-61
2022/03/21 03:22:38;;;;;;;14.45;2.38;;;21.80;37.80;;;;;;4934433;28;20104;-63
2022/03/21 03:25:05;;;;;;;11.50;2.13;;;21.80;37.80;;;;;;4965507;28;20091;-60
2022/03/21 03:27:32;;;;;;;14.90;2.05;;;21.80;37.70;;;;;;4950322;28;20078;-61
2022/03/21 03:29:59;;;;;;;12.57;1.88;;;21.70;37.70;;;;;;4950099;28;20080;-63
2022/03/21 03:32:26;;;;;;;8.25;1.98;;;21.70;37.80;;;;;;4949545;29;20072;-61
2022/03/21 03:34:52;;;;;;;21.77;2.00;;;21.70;37.80;;;;;;4948222;28;20082;-62
2022/03/21 03:37:19;;;;;;;11.25;1.92;;;21.70;38.00;;;;;;4951453;29;20500;-62
2022/03/21 03:39:45;;;;;;;13.52;2.30;;;21.60;38.00;;;;;;4950439;29;20138;-59
2022/03/21 03:42:12;;;;;;;6.28;2.05;;;21.60;38.30;;;;;;4965675;28;20728;-63
2022/03/21 03:44:38;;;;;;;13.57;2.58;;;21.60;38.40;;;;;;4948171;28;20068;-66
2022/03/21 03:47:05;;;;;;;13.10;3.08;;;21.50;38.60;;;;;;4934071;29;20095;-62
2022/03/21 03:49:31;;;;;;;13.63;2.55;;;21.50;38.90;;;;;;4950066;29;20080;-63
2022/03/21 03:51:58;;;;;;;18.42;2.20;;;21.40;38.90;;;;;;4950397;28;20067;-62
2022/03/21 03:54:24;;;;;;;18.58;3.17;;;21.40;39.00;;;;;;4951825;28;20076;-65
2022/03/21 03:56:50;;;;;;;15.68;2.40;;;21.40;39.00;;;;;;4956539;28;20099;-59
2022/03/21 03:59:17;;;;;;;23.67;2.67;;;21.30;39.20;;;;;;4950956;29;20111;-58
2022/03/21 04:01:43;;;;;;;15.88;2.38;;;21.30;39.30;;;;;;4950174;29;20177;-62
2022/03/21 04:04:10;;;;;;;19.92;2.30;;;21.20;39.40;;;;;;4951398;28;20447;-63
2022/03/21 04:06:36;;;;;;;11.57;2.47;;;21.20;39.60;;;;;;4953889;28;20197;-65
2022/03/21 04:09:03;;;;;;;8.82;1.80;;;21.20;39.70;;;;;;4952895;28;20100;-62
2022/03/21 04:11:29;;;;;;;8.07;1.75;;;21.10;39.70;;;;;;4951176;28;20151;-62
2022/03/21 04:13:55;;;;;;;17.50;2.30;;;21.10;39.60;;;;;;4950028;28;20103;-65
2022/03/21 04:16:22;;;;;;;11.88;2.10;;;21.10;39.60;;;;;;4950142;29;20076;-63
2022/03/21 04:18:48;;;;;;;10.05;1.95;;;21.10;39.50;;;;;;4950421;28;20438;-60
2022/03/21 04:21:15;;;;;;;12.57;2.63;;;21.00;39.40;;;;;;4949751;28;20091;-65
2022/03/21 04:23:41;;;;;;;15.68;2.30;;;21.00;39.40;;;;;;4952959;28;20101;-64
2022/03/21 04:26:08;;;;;;;8.40;1.92;;;21.00;39.40;;;;;;4949364;28;20090;-62
2022/03/21 04:28:34;;;;;;;14.55;2.53;;;21.00;39.40;;;;;;4949869;28;20097;-62
2022/03/21 04:31:01;;;;;;;9.60;2.00;;;20.90;39.40;;;;;;4949970;28;20071;-62
2022/03/21 04:33:27;;;;;;;17.08;2.42;;;20.90;39.40;;;;;;4947446;28;20171;-61
2022/03/21 04:35:54;;;;;;;18.95;2.40;;;20.90;39.40;;;;;;4959531;28;20166;-65
2022/03/21 04:38:20;;;;;;;11.90;2.30;;;20.90;39.30;;;;;;4950998;28;20096;-59
2022/03/21 04:40:49;;;;;;;15.63;2.28;;;20.90;39.20;;;;;;4953333;29;20845;-62
2022/03/21 04:43:17;;;;;;;10.43;2.00;;;20.90;39.20;;;;;;4953055;28;20087;-62
2022/03/21 04:45:45;;;;;;;15.80;2.40;;;20.90;38.90;;;;;;4952367;29;20499;-65
2022/03/21 04:48:12;;;;;;;21.40;2.35;;;20.90;38.60;;;;;;4951107;29;20074;-63
2022/03/21 04:50:39;;;;;;;19.38;2.47;;;20.90;38.40;;;;;;4954288;28;20099;-63
2022/03/21 04:53:06;;;;;;;12.07;2.13;;;21.00;38.30;;;;;;4953736;29;20166;-62
2022/03/21 04:55:33;;;;;;;19.02;2.28;;;21.00;38.10;;;;;;4953798;29;20134;-64
2022/03/21 04:58:02;;;;;;;15.20;1.80;;;21.00;37.70;;;;;;4937160;28;20087;-64
2022/03/21 05:00:29;;;;;;;25.13;2.63;;;21.00;37.40;;;;;;4967548;28;20558;-64
2022/03/21 05:02:55;;;;;;;12.73;2.13;;;21.00;37.10;;;;;;4953862;28;20107;-61
2022/03/21 05:05:22;;;;;;;15.20;2.13;;;21.10;36.90;;;;;;4952198;29;20112;-64
2022/03/21 05:07:54;;;;;;;7.57;1.83;;;21.10;37.00;;;;;;4968331;28;20166;-63
2022/03/21 05:10:22;;;;;;;8.38;1.77;;;21.10;36.90;;;;;;4952756;28;20092;-63
2022/03/21 05:12:50;;;;;;;10.32;2.10;;;21.00;36.80;;;;;;4953250;28;20076;-62
2022/03/21 05:15:17;;;;;;;10.57;2.20;;;21.00;36.80;;;;;;4968363;28;20083;-65
2022/03/21 05:17:44;;;;;;;10.27;2.63;;;21.00;36.80;;;;;;4952605;29;20075;-62
2022/03/21 05:20:20;;;;;;;12.30;2.30;;;21.00;36.70;;;;;;4952488;29;20111;-67
2022/03/21 05:31:06;;;;;;;9.68;2.00;;;21.00;35.90;;;;;;4951997;28;20098;-65
2022/03/21 05:36:22;;;;;;;7.50;1.95;;;21.00;35.70;;;;;;4952687;29;20094;-64
2022/03/21 05:38:49;;;;;;;7.68;2.42;;;21.00;35.90;;;;;;4967091;28;20079;-63
2022/03/21 05:41:16;;;;;;;10.45;1.98;;;21.00;35.70;;;;;;4952062;29;20087;-62
2022/03/21 05:43:43;;;;;;;16.55;2.00;;;21.00;35.50;;;;;;4952575;28;20076;-64
2022/03/21 05:46:09;;;;;;;10.45;2.15;;;21.00;35.40;;;;;;4950851;28;20087;-64
2022/03/21 05:48:53;;;;;;;26.73;1.83;;;20.90;35.30;;;;;;4952655;28;20098;-62
2022/03/21 05:51:27;;;;;;;7.30;2.38;;;20.90;35.30;;;;;;4954987;28;20072;-63
2022/03/21 05:53:54;;;;;;;8.05;2.08;;;20.90;35.20;;;;;;4951837;28;20075;-60
2022/03/21 05:56:21;;;;;;;9.57;2.28;;;20.90;35.20;;;;;;4951962;28;20092;-59
2022/03/21 05:58:48;;;;;;;9.13;2.28;;;20.80;35.80;;;;;;4951415;29;20084;-62
2022/03/21 06:01:18;;;;;;;7.55;1.67;;;20.80;35.30;;;;;;4951595;29;20083;-63
2022/03/21 06:03:45;;;;;;;17.42;2.50;;;20.80;35.30;;;;;;4952620;28;20435;-62
2022/03/21 06:06:11;;;;;;;9.98;1.80;;;20.80;35.40;;;;;;4951426;29;20166;-62
2022/03/21 06:08:38;;;;;;;12.10;2.25;;;20.80;35.40;;;;;;4935794;29;20079;-62
2022/03/21 06:11:04;;;;;;;7.82;1.95;;;20.70;35.40;;;;;;4951657;28;20526;-63
2022/03/21 06:13:35;;;;;;;11.30;2.00;;;20.70;35.40;;;;;;4951912;29;20071;-64
2022/03/21 06:16:06;;;;;;;9.32;1.90;;;20.70;35.40;;;;;;4952163;29;20487;-60
2022/03/21 06:18:34;;;;;;;7.78;2.00;;;20.60;35.50;;;;;;4935570;29;20154;-62
2022/03/21 06:21:02;;;;;;;14.40;2.17;;;20.60;35.70;;;;;;4967357;28;20075;-61
2022/03/21 06:23:29;;;;;;;7.18;1.85;;;20.60;35.80;;;;;;4947924;29;20456;-62
2022/03/21 06:25:56;;;;;;;10.65;1.70;;;20.60;35.90;;;;;;4950669;29;20092;-63
2022/03/21 06:28:23;;;;;;;10.45;2.30;;;20.50;36.10;;;;;;4951616;28;20079;-63
2022/03/21 06:30:51;;;;;;;15.68;1.70;;;20.40;36.20;;;;;;4950098;28;20079;-63
2022/03/21 06:33:23;;;;;;;7.65;2.00;;;20.40;36.40;;;;;;4942411;28;20079;-62
2022/03/21 06:35:50;;;;;;;8.32;1.65;;;20.30;36.20;;;;;;4951804;28;20107;-62
2022/03/21 06:38:17;;;;;;;6.63;1.60;;;20.30;36.10;;;;;;4967747;28;20079;-62
2022/03/21 06:40:44;;;;;;;8.20;1.92;;;20.30;36.10;;;;;;4951313;28;20095;-63
2022/03/21 06:43:13;;;;;;;8.10;1.85;;;20.30;36.30;;;;;;4950462;29;20087;-63
2022/03/21 06:45:39;;;;;;;6.55;1.85;;;20.20;36.70;;;;;;4948369;28;20461;-64
2022/03/21 06:48:05;;;;;;;10.73;1.60;;;20.20;36.10;;;;;;4949346;29;20182;-63
2022/03/21 06:50:32;;;;;;;10.73;2.00;;;20.10;36.10;;;;;;4955983;28;20096;-62
2022/03/21 06:52:59;;;;;;;13.48;2.15;;;20.10;36.10;;;;;;4962453;28;20532;-61
2022/03/21 06:55:25;;;;;;;9.77;2.08;;;20.10;36.20;;;;;;4948122;29;20630;-61
2022/03/21 06:57:52;;;;;;;9.13;1.77;;;20.00;36.20;;;;;;4957653;28;20440;-63
2022/03/21 07:00:19;;;;;;;9.40;2.13;;;20.00;36.10;;;;;;4962013;28;20096;-61
2022/03/21 07:02:45;;;;;;;8.95;2.08;;;20.00;36.20;;;;;;4951043;28;20076;-59
2022/03/21 07:05:12;;;;;;;6.20;1.98;;;20.00;36.10;;;;;;4950187;28;20122;-65
2022/03/21 07:07:39;;;;;;;6.25;1.75;;;20.00;36.20;;;;;;4953607;28;20091;-63
2022/03/21 07:10:06;;;;;;;8.32;1.80;;;20.00;36.20;;;;;;4947289;29;20107;-62
2022/03/21 07:12:38;;;;;;;10.30;1.63;;;20.10;36.10;;;;;;4961489;28;20158;-61
2022/03/21 07:15:05;;;;;;;10.40;1.73;;;20.20;36.00;;;;;;4962664;28;20107;-61
2022/03/21 07:17:32;;;;;;;6.45;1.95;;;20.30;35.80;;;;;;4958776;28;20551;-61
2022/03/21 07:19:58;;;;;;;13.57;2.65;;;20.30;35.80;;;;;;4957700;28;20079;-60
2022/03/21 07:22:24;;;;;;;;;;;20.30;35.60;;;;;;4964823;28;20100;-62
2022/03/21 07:24:51;;;;;;;10.82;2.13;;;20.30;35.40;;;;;;4953023;28;20046;-59
2022/03/21 07:27:17;;;;;;;;;;;20.30;35.30;;;;;;4956388;28;20087;-60
2022/03/21 07:29:43;;;;;;;12.15;2.15;;;20.30;35.30;;;;;;4956046;28;20063;-59
2022/03/21 07:32:10;;;;;;;10.35;1.90;;;20.30;35.20;;;;;;4949604;28;20071;-60
2022/03/21 07:34:36;;;;;;;;;;;20.30;35.20;;;;;;4961549;28;20106;-60
2022/03/21 07:37:02;;;;;;;5.15;1.60;;;20.30;35.20;;;;;;4949372;28;19959;-58
2022/03/21 07:39:29;;;;;;;12.82;2.33;;;20.20;35.10;;;;;;4948436;28;20098;-59
2022/03/21 07:42:00;;;;;;;6.40;1.63;;;20.20;35.10;;;;;;4956746;28;20175;-61
2022/03/21 07:47:20;;;;;;;7.45;1.88;;;20.20;35.00;;;;;;4947907;29;20106;-60
2022/03/21 07:49:48;;;;;;;9.15;1.75;;;20.10;35.10;;;;;;4934285;29;20106;-59
2022/03/21 07:52:18;;;;;;;5.93;1.60;;;20.20;35.20;;;;;;4948059;28;20078;-59
2022/03/21 07:54:53;;;;;;;10.63;1.52;;;20.10;35.10;;;;;;4944813;28;20076;-59
2022/03/21 07:57:29;;;;;;;17.42;1.75;;;20.10;35.10;;;;;;4945926;29;20087;-62
2022/03/21 07:59:55;;;;;;;9.97;1.80;;;20.10;35.10;;;;;;4947039;28;20087;-62
2022/03/21 08:02:21;;;;;;;;;;;20.10;35.00;;;;;;4947638;29;20554;-63
2022/03/21 08:04:50;;;;;;;9.98;1.60;;;20.10;34.70;;;;;;4944718;28;20017;-61
2022/03/21 08:07:16;;;;;;;9.75;1.50;;;20.00;34.50;;;;;;4963080;28;20150;-62
2022/03/21 08:09:43;;;;;;;5.72;1.48;;;20.00;34.60;;;;;;4947751;28;20072;-64
2022/03/21 08:12:10;;;;;;;6.75;1.30;;;20.00;34.40;;;;;;4948220;28;20076;-63
2022/03/21 08:14:36;;;;;;;7.97;1.85;;;20.00;34.20;;;;;;4952418;28;20588;-63
2022/03/21 08:17:04;;;;;;;10.73;1.60;;;19.90;34.10;;;;;;4953158;28;20080;-63
2022/03/21 08:19:30;;;;;;;5.65;1.20;;;20.00;34.00;;;;;;4950105;28;20134;-62
2022/03/21 08:21:57;;;;;;;11.20;1.70;;;19.90;33.80;;;;;;4960825;28;20083;-62
2022/03/21 08:24:23;;;;;;;7.75;1.58;;;20.00;33.90;;;;;;4960359;28;20134;-62
2022/03/21 08:26:50;;;;;;;6.85;1.40;;;20.00;33.70;;;;;;4961136;28;20091;-62
2022/03/21 08:29:17;;;;;;;34.88;4.55;;;20.00;33.70;;;;;;4963985;28;20072;-62
2022/03/21 08:31:43;;;;;;;6.85;1.58;;;19.90;33.70;;;;;;4960724;28;20159;-62
2022/03/21 08:34:10;;;;;;;7.18;1.30;;;19.90;33.70;;;;;;4965147;28;20171;-61
2022/03/21 08:36:36;;;;;;;7.25;1.65;;;19.90;33.70;;;;;;4956612;28;20087;-62
2022/03/21 08:39:03;;;;;;;8.25;1.80;;;19.90;33.60;;;;;;4967519;28;20146;-60
2022/03/21 08:41:30;;;;;;;8.27;1.75;;;19.90;33.50;;;;;;4953014;29;20084;-62
2022/03/21 08:43:56;;;;;;;14.55;2.05;;;19.90;33.40;;;;;;4961114;28;20072;-64
2022/03/21 08:46:22;;;;;;;;;;;19.90;33.50;;;;;;4952764;28;20091;-59
2022/03/21 08:51:37;;;;;;;18.00;1.92;;;19.90;33.40;;;;;;4959837;28;20154;-62
2022/03/21 08:54:04;;;;;;;7.70;1.67;;;19.90;33.50;;;;;;4957438;28;20071;-61
2022/03/21 08:56:31;;;;;;;10.65;1.90;;;19.90;33.50;;;;;;4946683;29;20120;-61
2022/03/21 08:58:58;;;;;;;13.38;1.88;;;19.80;33.60;;;;;;4968287;28;20084;-61
2022/03/21 09:01:24;;;;;;;9.57;1.60;;;19.90;33.70;;;;;;4952077;28;20076;-61
2022/03/21 09:03:51;;;;;;;9.75;1.50;;;19.80;33.80;;;;;;4950999;29;20079;-61
2022/03/21 09:06:20;;;;;;;10.10;1.85;;;19.70;34.00;;;;;;4948907;28;20487;-61
2022/03/21 09:08:51;;;;;;;15.43;1.98;;;19.60;34.30;;;;;;4951377;28;20080;-61
2022/03/21 09:11:18;;;;;;;11.45;1.85;;;19.60;34.50;;;;;;4959827;28;20084;-62
2022/03/21 09:13:48;;;;;;;7.15;1.63;;;19.60;34.70;;;;;;4953377;29;20082;-63
2022/03/21 09:16:15;;;;;;;8.52;2.28;;;19.50;34.90;;;;;;4948120;29;20076;-62
2022/03/21 09:18:42;;;;;;;7.25;1.83;;;19.50;34.90;;;;;;4951316;29;20642;-61
2022/03/21 09:21:10;;;;;;;7.65;1.70;;;19.40;35.00;;;;;;4949818;29;20135;-63
2022/03/21 09:23:37;;;;;;;11.32;2.08;;;19.40;35.20;;;;;;4949313;29;20072;-61
2022/03/21 09:26:05;;;;;;;10.60;2.30;;;19.30;35.20;;;;;;4961769;28;20088;-62
2022/03/21 09:28:32;;;;;;;14.30;2.28;;;19.30;35.30;;;;;;4953515;28;20171;-63
2022/03/21 09:30:59;;;;;;;10.18;2.40;;;19.30;35.40;;;;;;4949953;29;20072;-64
2022/03/21 09:33:27;;;;;;;8.48;1.90;;;19.20;35.50;;;;;;4964725;28;20555;-62
2022/03/21 09:35:53;;;;;;;12.57;2.00;;;19.20;35.40;;;;;;4965208;28;20076;-62
2022/03/21 09:38:20;;;;;;;10.32;2.20;;;19.20;35.50;;;;;;4949453;29;20127;-63
2022/03/21 09:40:47;;;;;;;10.10;1.70;;;19.10;35.60;;;;;;4964482;28;20084;-61
2022/03/21 09:43:13;;;;;;;8.73;1.98;;;19.10;35.80;;;;;;4956860;28;20249;-61
2022/03/21 09:45:40;;;;;;;8.65;1.55;;;19.00;35.70;;;;;;4936374;29;20095;-63
2022/03/21 09:48:14;;;;;;;7.13;1.80;;;19.00;35.80;;;;;;4947127;28;20079;-62
2022/03/21 09:50:44;;;;;;;9.73;1.55;;;18.90;35.80;;;;;;4944237;28;20450;-62
2022/03/21 09:53:13;;;;;;;9.75;2.17;;;18.90;35.80;;;;;;4950535;29;20520;-62
2022/03/21 09:55:41;;;;;;;4.13;1.30;;;18.80;35.90;;;;;;4950891;28;20102;-62
2022/03/21 09:58:09;;;;;;;14.65;2.88;;;18.80;36.10;;;;;;4951327;28;20163;-63
2022/03/21 10:00:37;;;;;;;13.70;1.98;;;18.80;36.30;;;;;;4956306;28;20098;-62
2022/03/21 10:03:04;;;;;;;9.73;1.65;;;18.70;36.30;;;;;;4949672;28;20442;-62
2022/03/21 10:05:35;;;;;;;6.88;1.80;;;18.70;36.60;;;;;;4941277;29;20139;-62
2022/03/21 10:08:21;;;;;;;12.02;1.92;;;18.60;36.80;;;;;;4949813;28;20075;-62
2022/03/21 10:10:56;;;;;;;12.15;1.90;;;18.50;36.90;;;;;;4947678;29;20072;-63
2022/03/21 10:13:25;;;;;;;10.20;1.75;;;18.50;37.00;;;;;;4951713;28;20535;-62
2022/03/21 10:16:09;;;;;;;8.73;1.95;;;18.50;37.20;;;;;;4934915;29;20520;-64
2022/03/21 10:18:36;;;;;;;12.10;1.73;;;18.40;37.20;;;;;;4955961;28;20083;-62
2022/03/21 10:21:16;;;;;;;12.60;1.67;;;18.30;37.00;;;;;;4955940;28;20563;-63
2022/03/21 10:23:46;;;;;;;9.63;1.73;;;18.30;37.20;;;;;;4948212;29;20087;-62
2022/03/21 10:26:55;;;;;;;8.75;1.83;;;18.20;37.30;;;;;;4951286;28;20091;-62
2022/03/21 10:29:22;;;;;;;8.80;1.92;;;18.10;37.50;;;;;;4943688;29;20080;-63
2022/03/21 10:31:52;;;;;;;8.48;1.52;;;18.10;37.90;;;;;;4949661;28;20122;-58
2022/03/21 10:34:21;;;;;;;12.57;1.55;;;18.10;37.70;;;;;;4965959;28;20079;-63
2022/03/21 10:37:08;;;;;;;6.97;1.40;;;18.10;37.80;;;;;;4948716;28;20166;-62
2022/03/21 10:39:40;;;;;;;10.57;1.40;;;18.00;37.80;;;;;;4963201;28;20147;-62
2022/03/21 10:42:09;;;;;;;13.95;1.48;;;17.90;37.70;;;;;;4949576;28;20080;-63
2022/03/21 10:44:37;;;;;;;10.93;1.42;;;17.90;37.80;;;;;;4964301;28;20606;-62
2022/03/21 10:47:06;;;;;;;10.30;2.00;;;17.80;38.00;;;;;;4960953;28;20091;-64
2022/03/21 10:49:43;;;;;;;8.82;2.03;;;17.80;38.20;;;;;;4955057;28;20176;-62
2022/03/21 10:52:21;;;;;;;9.55;1.55;;;17.70;38.20;;;;;;4948050;28;20067;-59
2022/03/21 10:54:50;;;;;;;9.82;1.88;;;17.70;38.30;;;;;;4934927;28;20083;-62
2022/03/21 10:57:38;;;;;;;16.13;1.98;;;17.70;38.40;;;;;;4962429;28;20096;-62
2022/03/21 11:00:20;;;;;;;18.17;2.03;;;17.60;38.50;;;;;;4955001;28;20132;-63
2022/03/21 11:02:59;;;;;;;16.80;2.13;;;17.60;38.40;;;;;;4932171;29;20107;-62
2022/03/21 11:05:29;;;;;;;9.20;1.77;;;17.50;38.20;;;;;;4957012;28;20470;-62
2022/03/21 11:07:57;;;;;;;11.23;1.73;;;17.50;38.40;;;;;;4962217;28;20068;-63
2022/03/21 11:10:26;;;;;;;15.10;1.80;;;17.50;38.60;;;;;;4963025;28;20085;-62
2022/03/21 11:12:56;;;;;;;17.25;1.95;;;17.40;38.70;;;;;;4965856;28;20072;-62
2022/03/21 11:15:24;;;;;;;6.75;1.40;;;17.40;39.00;;;;;;4964945;28;20134;-62
2022/03/21 11:17:51;;;;;;;12.00;1.75;;;17.30;38.80;;;;;;4950290;29;20599;-63
2022/03/21 11:20:17;;;;;;;6.25;1.90;;;17.20;39.10;;;;;;4949135;29;20080;-62
2022/03/21 11:22:44;;;;;;;8.57;1.70;;;17.20;40.00;;;;;;4956755;28;20087;-62
2022/03/21 11:25:16;;;;;;;13.55;1.80;;;17.20;39.90;;;;;;4945599;29;20566;-61
2022/03/21 11:28:38;;;;;;;8.55;1.70;;;17.00;40.60;;;;;;4933719;29;20496;-61
2022/03/21 11:31:23;;;;;;;6.72;1.38;;;16.80;41.10;;;;;;4912327;29;20185;-62
2022/03/21 11:34:08;;;;;;;4.55;1.10;;;16.80;41.60;;;;;;4956202;28;20077;-61
2022/03/21 11:36:53;;;;;;;7.60;1.60;;;16.70;41.80;;;;;;4958558;28;20467;-62
2022/03/21 11:39:20;;;;;;;12.30;1.42;;;16.60;42.10;;;;;;4954676;28;20087;-62
2022/03/21 11:42:14;;;;;;;11.93;1.55;;;16.60;42.50;;;;;;4948757;28;20079;-61
2022/03/21 11:44:41;;;;;;;4.53;0.95;;;16.60;42.70;;;;;;4956332;28;20072;-64
2022/03/21 11:47:25;;;;;;;16.75;1.65;;;16.50;42.80;;;;;;4955442;28;20092;-59
2022/03/21 11:49:55;;;;;;;5.15;1.45;;;16.60;43.40;;;;;;4932216;29;20195;-61
2022/03/21 11:52:23;;;;;;;13.32;1.65;;;16.50;44.00;;;;;;4949139;28;20080;-62
2022/03/21 11:54:49;;;;;;;12.70;1.60;;;16.50;44.00;;;;;;4947302;28;20483;-61
2022/03/21 11:57:31;;;;;;;11.55;1.60;;;16.40;43.40;;;;;;4953151;28;20098;-63
2022/03/21 11:59:59;;;;;;;9.70;1.65;;;16.30;43.00;;;;;;4939850;29;20130;-62
2022/03/21 12:02:25;;;;;;;11.45;1.70;;;16.20;42.80;;;;;;4946164;29;20076;-62
2022/03/21 12:05:06;;;;;;;6.97;1.20;;;16.20;42.80;;;;;;4962308;28;20123;-62
2022/03/21 12:07:33;;;;;;;24.13;2.85;;;16.20;42.80;;;;;;4957540;28;20146;-63
2022/03/21 12:09:59;;;;;;;12.68;1.77;;;16.20;42.90;;;;;;4942089;28;20099;-62
2022/03/21 12:12:41;;;;;;;11.10;1.67;;;16.20;43.20;;;;;;4964539;28;20167;-63
2022/03/21 12:15:29;;;;;;;11.40;1.50;;;16.20;43.90;;;;;;4957220;28;20103;-61
2022/03/21 12:17:56;;;;;;;7.68;1.63;;;16.20;43.50;;;;;;4949159;29;20080;-62
2022/03/21 12:20:23;;;;;;;9.98;2.22;;;16.20;44.00;;;;;;4945539;28;20114;-62
2022/03/21 12:22:51;;;;;;;10.27;1.60;;;16.10;43.50;;;;;;4952436;28;20099;-61
2022/03/21 12:25:22;;;;;;;6.10;1.48;;;16.10;43.60;;;;;;4963005;28;20095;-64
2022/03/21 12:27:58;;;;;;;11.32;1.73;;;16.10;44.00;;;;;;4943362;28;20480;-63
2022/03/21 12:30:29;;;;;;;8.55;1.58;;;16.10;44.60;;;;;;4961404;28;20076;-64
2022/03/21 12:33:01;;;;;;;12.40;1.63;;;16.10;43.90;;;;;;4945982;29;20134;-63
2022/03/21 12:35:40;;;;;;;7.05;1.98;;;15.90;43.60;;;;;;4956912;28;20119;-61
2022/03/21 12:38:20;;;;;;;12.68;2.03;;;15.90;44.00;;;;;;4949966;29;20090;-61
2022/03/21 12:40:59;;;;;;;5.50;1.50;;;16.00;44.20;;;;;;4949221;28;20075;-65
2022/03/21 12:43:43;;;;;;;15.77;1.80;;;15.90;43.70;;;;;;4948875;29;20083;-60
2022/03/21 12:46:12;;;;;;;9.10;1.60;;;15.90;43.30;;;;;;4933829;28;20622;-62
2022/03/21 12:48:41;;;;;;;13.07;1.70;;;15.90;43.10;;;;;;4958954;28;21585;-63
2022/03/21 12:51:11;;;;;;;16.63;1.90;;;15.90;42.90;;;;;;4961836;28;20080;-62
2022/03/21 12:53:44;;;;;;;11.60;1.33;;;15.90;42.90;;;;;;4933898;28;20614;-59
2022/03/21 12:56:16;;;;;;;12.63;1.95;;;15.90;42.60;;;;;;4950582;28;20094;-58
2022/03/21 12:58:47;;;;;;;9.48;1.48;;;15.90;42.70;;;;;;4960964;28;20452;-60
2022/03/21 13:01:19;;;;;;;15.20;2.35;;;15.90;42.50;;;;;;4956721;28;20101;-58
2022/03/21 13:03:45;;;;;;;13.30;2.17;;;15.90;42.50;;;;;;4951611;28;20456;-62
2022/03/21 13:11:29;;;;;;;19.17;2.20;;;15.90;42.80;;;;;;4949354;29;20076;-62
2022/03/21 13:13:58;;;;;;;7.90;2.03;;;15.90;42.60;;;;;;4937086;29;20074;-64
2022/03/21 13:16:27;;;;;;;19.02;2.28;;;15.90;43.30;;;;;;4952141;28;20102;-63